Ohshima Kazumaru — JD2908 — position and weather

sailwx.info

Track history (hours):
 
Tides and Currents Weather Stations Pressure Air Temp Water Temp Dewpoint Dewpoint Depression Visibility Wind Speed Wind Dir Waves Ship Positions

Ohshima Kazumaru

Last reported at 2016-Aug-24 13:21 UTC. Time now 2016-Aug-28 14:04 UTC.
Position N 34°60' E 139°28'.

Length 69 m; draft 4 m.

Type: Cargo ship. MMSI: 431000925.

Date/timePositionNaut miles runAvg speedWind from/ knotsBaromVisibWave heightAir tempDewpointWater temp
2016-Aug-24 13:21N 34°60' E 139°28'911.6
2016-Aug-24 12:33N 35°05' E 139°37'1211.4
2016-Aug-24 11:32N 35°14' E 139°46'1111.0
2016-Aug-24 10:33N 35°24' E 139°43'8 8.0
2016-Aug-24 09:33N 35°32' E 139°47'0 0.0
2016-Aug-24 08:33N 35°32' E 139°47'0 0.0
2016-Aug-24 07:33N 35°32' E 139°47'0 0.0
2016-Aug-24 06:33N 35°32' E 139°47'0 0.0
2016-Aug-24 04:33N 35°32' E 139°47'0 0.0
2016-Aug-24 03:33N 35°32' E 139°47'0 0.0
2016-Aug-24 02:33N 35°32' E 139°47'0 0.0
2016-Aug-24 01:33N 35°32' E 139°47'0 0.0
2016-Aug-24 00:33N 35°32' E 139°47'0 0.0
2016-Aug-23 23:33N 35°32' E 139°47'0 0.0
2016-Aug-23 22:33N 35°32' E 139°47'2 2.3
2016-Aug-23 21:33N 35°30' E 139°50'0 0.0
2016-Aug-23 20:33N 35°30' E 139°50'7 6.5
2016-Aug-23 19:32N 35°24' E 139°46'1010.6
2016-Aug-23 18:33N 35°14' E 139°47'1111.0
2016-Aug-23 17:33N 35°04' E 139°42'  
2016-Aug-16 10:24N 34°07' E 134°47'24310.4
2016-Aug-15 11:08N 35°03' E 139°34'911.3
2016-Aug-15 10:22N 35°08' E 139°43'910.7
2016-Aug-15 09:33N 35°17' E 139°45'10 9.8
2016-Aug-15 08:33N 35°26' E 139°45'5 5.3
2016-Aug-15 07:33N 35°32' E 139°47'0 0.0
2016-Aug-15 06:33N 35°32' E 139°47'0 0.0
2016-Aug-15 04:33N 35°32' E 139°47'0 0.0
2016-Aug-15 03:33N 35°32' E 139°47'0 0.0
2016-Aug-15 02:33N 35°32' E 139°47'0 0.0
2016-Aug-15 01:33N 35°32' E 139°47'0 0.0
2016-Aug-15 00:33N 35°32' E 139°47'0 0.0
2016-Aug-14 23:33N 35°32' E 139°47'0 0.0
2016-Aug-14 22:33N 35°32' E 139°47'0 0.0
2016-Aug-14 21:33N 35°32' E 139°47'0 0.0
2016-Aug-14 20:33N 35°32' E 139°47'0 0.0
2016-Aug-14 19:33N 35°32' E 139°47'0 0.0
2016-Aug-14 18:33N 35°32' E 139°47'0 0.0
2016-Aug-14 17:33N 35°32' E 139°47'0 0.0
2016-Aug-14 16:33N 35°32' E 139°47'0 0.0
2016-Aug-14 15:33N 35°32' E 139°47'0 0.0
2016-Aug-14 14:33N 35°32' E 139°47'0 0.0
2016-Aug-14 13:33N 35°32' E 139°47'  
Track history (hours):
 
Tides and Currents Weather Stations Pressure Air Temp Water Temp Dewpoint Dewpoint Depression Visibility Wind Speed Wind Dir Waves Ship Positions

Ohshima Kazumaru

Last reported at 2016-Aug-24 13:21 UTC. Time now 2016-Aug-28 14:04 UTC.
Position N 34°60' E 139°28'.

Length 69 m; draft 4 m.

Type: Cargo ship. MMSI: 431000925.

Date/timePositionNaut miles runAvg speedWind from/ knotsBaromVisibWave heightAir tempDewpointWater temp
2016-Aug-24 13:21N 34°60' E 139°28'911.6
2016-Aug-24 12:33N 35°05' E 139°37'1211.4
2016-Aug-24 11:32N 35°14' E 139°46'1111.0
2016-Aug-24 10:33N 35°24' E 139°43'8 8.0
2016-Aug-24 09:33N 35°32' E 139°47'0 0.0
2016-Aug-24 08:33N 35°32' E 139°47'0 0.0
2016-Aug-24 07:33N 35°32' E 139°47'0 0.0
2016-Aug-24 06:33N 35°32' E 139°47'0 0.0
2016-Aug-24 04:33N 35°32' E 139°47'0 0.0
2016-Aug-24 03:33N 35°32' E 139°47'0 0.0
2016-Aug-24 02:33N 35°32' E 139°47'0 0.0
2016-Aug-24 01:33N 35°32' E 139°47'0 0.0
2016-Aug-24 00:33N 35°32' E 139°47'0 0.0
2016-Aug-23 23:33N 35°32' E 139°47'0 0.0
2016-Aug-23 22:33N 35°32' E 139°47'2 2.3
2016-Aug-23 21:33N 35°30' E 139°50'0 0.0
2016-Aug-23 20:33N 35°30' E 139°50'7 6.5
2016-Aug-23 19:32N 35°24' E 139°46'1010.6
2016-Aug-23 18:33N 35°14' E 139°47'1111.0
2016-Aug-23 17:33N 35°04' E 139°42'  
2016-Aug-16 10:24N 34°07' E 134°47'24310.4
2016-Aug-15 11:08N 35°03' E 139°34'911.3
2016-Aug-15 10:22N 35°08' E 139°43'910.7
2016-Aug-15 09:33N 35°17' E 139°45'10 9.8
2016-Aug-15 08:33N 35°26' E 139°45'5 5.3
2016-Aug-15 07:33N 35°32' E 139°47'0 0.0
2016-Aug-15 06:33N 35°32' E 139°47'0 0.0
2016-Aug-15 04:33N 35°32' E 139°47'0 0.0
2016-Aug-15 03:33N 35°32' E 139°47'0 0.0
2016-Aug-15 02:33N 35°32' E 139°47'0 0.0
2016-Aug-15 01:33N 35°32' E 139°47'0 0.0
2016-Aug-15 00:33N 35°32' E 139°47'0 0.0
2016-Aug-14 23:33N 35°32' E 139°47'0 0.0
2016-Aug-14 22:33N 35°32' E 139°47'0 0.0
2016-Aug-14 21:33N 35°32' E 139°47'0 0.0
2016-Aug-14 20:33N 35°32' E 139°47'0 0.0
2016-Aug-14 19:33N 35°32' E 139°47'0 0.0
2016-Aug-14 18:33N 35°32' E 139°47'0 0.0
2016-Aug-14 17:33N 35°32' E 139°47'0 0.0
2016-Aug-14 16:33N 35°32' E 139°47'0 0.0
2016-Aug-14 15:33N 35°32' E 139°47'0 0.0
2016-Aug-14 14:33N 35°32' E 139°47'0 0.0
2016-Aug-14 13:33N 35°32' E 139°47'  

Dump ship's entire track history